KGFK

Grand Forks International Airport

Grand Forks, North Dakota, USA
KGFK 251733Z 2518/2618 22018G27KT P6SM SCT250 FM260000 22014G22KT P6SM SCT150 FM260400 32015G23KT P6SM BKN080 FM261000 34016KT P6SM FEW200
Issued Valid From Valid To
Apr-25 @ 17:33 UTC
(29 minutes ago)
Apr-25 @ 18:00 UTC
(2 minutes ago)
Apr-26 @ 18:00 UTC
(in 24 hours)
Apr-25 @ 18:00 to Apr-26 @ 00:00
KGFK 251733Z 2518/2618 22018G27KT P6SM SCT250
Wind Visibility Clouds
220° at 18 knots
 Gusting to 27 knots
Greater than 6 miles
  • Scattered at 25,000' AGL
From Apr-26 @ 00:00 to Apr-26 @ 04:00
FM260000 22014G22KT P6SM SCT150
Wind Visibility Clouds
220° at 14 knots
 Gusting to 22 knots
Greater than 6 miles
  • Scattered at 15,000' AGL
From Apr-26 @ 04:00 to Apr-26 @ 10:00
FM260400 32015G23KT P6SM BKN080
Wind Visibility Clouds
320° at 15 knots
 Gusting to 23 knots
Greater than 6 miles
  • Broken at 8,000' AGL
From Apr-26 @ 10:00 to Apr-26 @ 18:00
FM261000 34016KT P6SM FEW200
Wind Visibility Clouds
340° at 16 knots Greater than 6 miles
  • Few at 20,000' AGL
KGFK 251733Z 2518/2618 22018G27KT P6SM SCT250 FM260000 22014G22KT P6SM SCT150 FM260400 32015G23KT P6SM BKN080 FM261000 34016KT P6SM FEW200
Issued Apr-25 @ 17:33 UTC
(29 minutes ago)
Valid From Apr-25 @ 18:00 UTC
(2 minutes ago)
Valid To Apr-26 @ 18:00 UTC
(in 24 hours)
Apr-25 @ 18:00 - Apr-26 @ 00:00
Wind Visibility
220° at 18 knots
 Gusting to 27 knots
Greater than 6 miles
Clouds
  • Scattered at 25,000' AGL
From Apr-26 @ 00:00 - Apr-26 @ 04:00
Wind Visibility
220° at 14 knots
 Gusting to 22 knots
Greater than 6 miles
Clouds
  • Scattered at 15,000' AGL
From Apr-26 @ 04:00 - Apr-26 @ 10:00
Wind Visibility
320° at 15 knots
 Gusting to 23 knots
Greater than 6 miles
Clouds
  • Broken at 8,000' AGL
From Apr-26 @ 10:00 - Apr-26 @ 18:00
Wind Visibility
340° at 16 knots Greater than 6 miles
Clouds
  • Few at 20,000' AGL